createdAt,value
2023-02-14T00:05:08.175Z,55.80
2023-02-14T00:15:09.060Z,91.70
2023-02-14T00:41:45.410Z,97.70
2023-02-14T00:48:21.479Z,59.95
2023-02-14T02:14:29.665Z,45.85
2023-02-14T03:01:15.792Z,127.55
2023-02-14T03:34:52.482Z,104.55
2023-02-14T03:51:39.552Z,73.80
2023-02-14T04:39:45.126Z,76.95
2023-02-14T06:48:09.055Z,105.55
2023-02-14T07:12:05.482Z,94.70
2023-02-14T07:15:17.471Z,98.18
2023-02-14T07:18:29.307Z,91.85
2023-02-14T07:21:37.434Z,107.80
2023-02-14T07:31:47.560Z,86.30
2023-02-14T07:38:48.870Z,90.82
2023-02-14T08:20:42.672Z,90.00
2023-02-14T08:37:48.517Z,91.50
2023-02-14T08:40:57.580Z,86.38
2023-02-14T08:44:04.971Z,89.65
2023-02-14T08:57:46.607Z,132.75
2023-02-14T09:00:54.268Z,106.88
2023-02-14T09:27:18.883Z,124.47
2023-02-14T09:48:55.562Z,124.85
2023-02-14T09:52:06.077Z,112.53
2023-02-14T10:02:19.347Z,67.78
2023-02-14T10:58:28.549Z,267.77
2023-02-14T11:23:28.986Z,336.27
2023-02-14T11:26:39.181Z,314.98
2023-02-14T11:40:13.174Z,253.65
2023-02-14T11:43:41.669Z,275.48
2023-02-14T11:46:53.347Z,314.38
2023-02-14T11:50:31.320Z,275.88
2023-02-14T11:53:54.863Z,279.58
2023-02-14T12:11:45.109Z,232.18
2023-02-14T12:18:38.069Z,176.07
2023-02-14T12:25:38.177Z,136.45
2023-02-14T12:32:37.261Z,144.82
2023-02-14T12:36:14.550Z,84.28
2023-02-14T12:39:51.710Z,72.82
2023-02-14T12:43:28.784Z,66.57
2023-02-14T12:47:04.823Z,63.63
2023-02-14T12:50:25.833Z,77.38
2023-02-14T12:54:01.086Z,76.43
2023-02-14T12:57:28.760Z,73.45
2023-02-14T13:00:47.967Z,81.72
2023-02-14T13:04:21.884Z,77.18
2023-02-14T13:07:48.456Z,76.50
2023-02-14T13:11:18.684Z,75.10
2023-02-14T13:18:04.626Z,100.75
2023-02-14T13:21:19.578Z,105.40
2023-02-14T13:24:49.946Z,103.30
2023-02-14T13:27:55.492Z,121.57
2023-02-14T13:31:05.553Z,85.47
2023-02-14T13:37:28.213Z,76.30
2023-02-14T13:44:08.007Z,86.25
2023-02-14T13:47:38.583Z,75.10
2023-02-14T13:50:59.326Z,78.57
2023-02-14T13:57:46.757Z,90.57
2023-02-14T14:00:52.406Z,93.22
2023-02-14T14:04:00.914Z,84.78
2023-02-14T14:07:11.295Z,109.60
2023-02-14T14:11:15.902Z,119.38
2023-02-14T14:14:23.180Z,100.80
2023-02-14T14:17:35.897Z,123.55
2023-02-14T14:48:51.621Z,78.22
2023-02-14T14:51:58.706Z,96.70
2023-02-14T14:55:09.970Z,81.47
2023-02-14T14:58:42.754Z,292.73
2023-02-14T15:01:52.006Z,283.60
2023-02-14T15:15:41.568Z,418.45
2023-02-14T15:18:58.388Z,388.15
2023-02-14T15:22:08.528Z,365.95
2023-02-14T15:25:22.982Z,377.25
2023-02-14T15:28:33.196Z,300.65
2023-02-14T15:31:42.660Z,300.48
2023-02-14T15:34:51.851Z,357.13
2023-02-14T15:38:03.761Z,426.27
2023-02-14T15:41:12.789Z,374.13
2023-02-14T15:44:30.417Z,375.52
2023-02-14T15:55:00.966Z,259.25
2023-02-14T16:01:57.064Z,283.45
2023-02-14T16:05:08.263Z,270.45
2023-02-14T16:08:34.423Z,283.17
2023-02-14T16:11:40.614Z,279.00
2023-02-14T16:14:48.629Z,256.13
2023-02-14T16:17:55.915Z,251.30
2023-02-14T16:21:16.056Z,294.17
2023-02-14T16:24:20.507Z,274.80
2023-02-14T16:27:24.862Z,277.85
2023-02-14T16:37:13.929Z,176.00
2023-02-14T16:40:21.976Z,75.07
2023-02-14T16:43:26.241Z,257.27
2023-02-14T16:46:34.234Z,289.92
2023-02-14T16:49:41.366Z,208.95
2023-02-14T16:52:49.304Z,259.02
2023-02-14T16:55:58.830Z,269.65
2023-02-14T16:59:02.372Z,269.05
2023-02-14T17:02:14.282Z,223.43
2023-02-14T17:05:19.757Z,242.23
2023-02-14T17:08:25.719Z,194.82
2023-02-14T17:11:36.683Z,121.65
2023-02-14T17:14:50.752Z,96.70
2023-02-14T17:21:09.099Z,86.07
2023-02-14T17:24:20.548Z,165.55
2023-02-14T17:27:24.318Z,296.70
2023-02-14T17:30:32.353Z,255.93
2023-02-14T17:33:47.932Z,270.88
2023-02-14T17:36:52.986Z,285.60
2023-02-14T17:39:57.416Z,268.02
2023-02-14T17:43:04.495Z,270.90
2023-02-14T17:46:11.725Z,254.52
2023-02-14T17:49:20.201Z,280.65
2023-02-14T17:52:33.153Z,216.15
2023-02-14T17:55:38.302Z,269.90
2023-02-14T18:02:16.567Z,260.40
2023-02-14T18:08:58.236Z,261.02
2023-02-14T18:12:04.966Z,275.65
2023-02-14T18:15:08.995Z,259.58
2023-02-14T18:18:12.723Z,208.88
2023-02-14T18:21:24.814Z,216.38
2023-02-14T18:24:32.480Z,237.43
2023-02-14T18:31:01.773Z,231.38
2023-02-14T18:40:46.651Z,245.95
2023-02-14T18:43:52.413Z,232.98
2023-02-14T18:46:56.258Z,260.50
2023-02-14T18:50:01.176Z,162.65
2023-02-14T19:03:04.541Z,94.65
2023-02-14T19:06:09.620Z,100.97
2023-02-14T19:09:21.809Z,114.25
2023-02-14T19:12:28.058Z,218.13
2023-02-14T19:15:34.876Z,227.80
2023-02-14T19:18:41.328Z,236.43
2023-02-14T19:21:52.046Z,160.77
2023-02-14T19:25:00.129Z,136.02
2023-02-14T19:28:05.258Z,127.72
2023-02-14T19:31:19.866Z,112.40
2023-02-14T19:34:31.178Z,95.80
2023-02-14T19:37:39.193Z,83.93
2023-02-14T19:40:50.005Z,214.43
2023-02-14T19:43:56.851Z,173.07
2023-02-14T19:47:09.919Z,129.52
2023-02-14T19:50:27.157Z,190.50
2023-02-14T19:53:33.736Z,197.70
2023-02-14T19:59:59.580Z,194.40
2023-02-14T20:03:08.513Z,187.48
2023-02-14T20:06:17.973Z,170.30
2023-02-14T20:09:24.126Z,167.93
2023-02-14T20:12:31.982Z,218.73
2023-02-14T20:15:38.344Z,161.43
2023-02-14T20:25:15.301Z,113.47
2023-02-14T20:28:19.276Z,142.55
2023-02-14T20:31:24.882Z,180.77
2023-02-14T20:34:31.121Z,146.02
2023-02-14T20:37:48.638Z,167.18
2023-02-14T20:40:53.252Z,147.10
2023-02-14T20:44:14.191Z,128.93
2023-02-14T20:47:18.883Z,147.00
2023-02-14T20:50:23.058Z,127.85
2023-02-14T20:53:27.005Z,139.65
2023-02-14T20:56:36.664Z,139.90
2023-02-14T20:59:48.032Z,124.63
2023-02-14T21:02:51.515Z,110.78
2023-02-14T21:06:00.110Z,106.72
2023-02-14T21:09:05.642Z,61.15
2023-02-14T21:17:29.386Z,50.25
2023-02-14T21:20:35.202Z,45.17
2023-02-14T21:23:40.679Z,58.30
2023-02-14T21:26:46.230Z,44.58
2023-02-14T21:29:52.944Z,24.92
2023-02-14T21:36:20.605Z,30.98
2023-02-14T21:46:09.310Z,46.63
2023-02-14T21:49:41.451Z,34.67
2023-02-14T21:52:44.589Z,35.58
2023-02-14T21:55:50.881Z,48.42
2023-02-14T22:02:18.947Z,38.50
2023-02-14T22:05:27.742Z,45.25
2023-02-14T22:08:33.404Z,61.55
2023-02-14T22:11:44.927Z,29.50
2023-02-14T22:14:50.090Z,13.95
2023-02-14T22:18:07.559Z,35.75
2023-02-14T22:21:19.297Z,30.17
2023-02-14T22:24:25.974Z,34.63
2023-02-14T22:27:32.652Z,41.05
2023-02-14T23:07:27.281Z,59.63
2023-02-14T23:10:32.253Z,58.88
2023-02-14T23:21:16.101Z,92.40
2023-02-14T23:31:14.461Z,106.43
2023-02-14T23:37:40.003Z,100.30
2023-02-14T23:44:33.676Z,57.33
2023-02-14T23:51:02.836Z,96.40
2023-02-14T23:54:12.330Z,84.20
2023-02-14T23:57:20.515Z,137.90
